KBJI/BJI METAR and TAF weather

Enter ICAO airport designator
Station Type Date Time Source
KBJI METAR 2021/07/29 08:35 UTC NOAA

KBJI 290835Z AUTO 33007KT 10SM CLR 18/11 A3006 RMK AO2 T01760114


Station Type Date Time Source
KBJI Decoded METAR 2021/07/29 08:35 UTC NOAA

Bemidji, MN, United States (KBJI) 47-30N 094-56W 420M
Jul 29, 2021 - 04:35 AM EDT / 2021.07.29 0835 UTC
Wind: from the NNW (330 degrees) at 8 MPH (7 KT):0
Visibility: 10 mile(s):0
Sky conditions: clear
Temperature: 63.7 F (17.6 C)
Dew Point: 52.5 F (11.4 C)
Relative Humidity: 66%
Pressure (altimeter): 30.06 in. Hg (1017 hPa)
ob: KBJI 290835Z AUTO 33007KT 10SM CLR 18/11 A3006 RMK AO2 T01760114
cycle: 8

Station Type Date Time Source
KBJI TAF 2021/07/29 06:22 UTC NOAA

TAF KBJI 290520Z 2906/3006 34011KT P6SM SCT200
FM290900 VRB05KT P6SM SCT200
FM291600 34010KT P6SM FEW200
FM300100 VRB05KT P6SM FEW200

Example: see airport list